sensor_id;sensor_type;location;lat;lon;timestamp;temperature;humidity
10583;DHT22;33679;51.218;6.786;2022-08-14T00:00:48;28.30;82.40
10583;DHT22;33679;51.218;6.786;2022-08-14T00:03:30;28.20;82.50
10583;DHT22;33679;51.218;6.786;2022-08-14T00:05:59;28.30;82.70
10583;DHT22;33679;51.218;6.786;2022-08-14T00:08:28;28.30;82.80
10583;DHT22;33679;51.218;6.786;2022-08-14T00:11:00;28.20;83.10
10583;DHT22;33679;51.218;6.786;2022-08-14T00:13:31;28.20;83.20
10583;DHT22;33679;51.218;6.786;2022-08-14T00:15:59;28.20;83.30
10583;DHT22;33679;51.218;6.786;2022-08-14T00:18:29;28.20;83.30
10583;DHT22;33679;51.218;6.786;2022-08-14T00:21:02;28.20;83.60
10583;DHT22;33679;51.218;6.786;2022-08-14T00:23:32;28.20;83.90
10583;DHT22;33679;51.218;6.786;2022-08-14T00:25:59;28.10;83.70
10583;DHT22;33679;51.218;6.786;2022-08-14T00:28:29;28.10;83.80
10583;DHT22;33679;51.218;6.786;2022-08-14T00:30:57;28.10;84.10
10583;DHT22;33679;51.218;6.786;2022-08-14T00:33:32;28.10;84.30
10583;DHT22;33679;51.218;6.786;2022-08-14T00:35:59;28.10;84.30
10583;DHT22;33679;51.218;6.786;2022-08-14T00:38:35;28.00;84.60
10583;DHT22;33679;51.218;6.786;2022-08-14T00:41:03;28.00;84.90
10583;DHT22;33679;51.218;6.786;2022-08-14T00:43:32;28.00;85.00
10583;DHT22;33679;51.218;6.786;2022-08-14T00:46:02;27.90;85.10
10583;DHT22;33679;51.218;6.786;2022-08-14T00:48:32;27.90;85.40
10583;DHT22;33679;51.218;6.786;2022-08-14T00:51:00;27.80;85.40
10583;DHT22;33679;51.218;6.786;2022-08-14T00:53:27;27.80;85.50
10583;DHT22;33679;51.218;6.786;2022-08-14T00:55:55;27.80;86.20
10583;DHT22;33679;51.218;6.786;2022-08-14T00:58:23;27.80;86.20
10583;DHT22;33679;51.218;6.786;2022-08-14T01:01:03;27.80;85.60
10583;DHT22;33679;51.218;6.786;2022-08-14T01:03:32;27.80;85.60
10583;DHT22;33679;51.218;6.786;2022-08-14T01:06:05;27.80;85.90
10583;DHT22;33679;51.218;6.786;2022-08-14T01:08:35;27.80;86.00
10583;DHT22;33679;51.218;6.786;2022-08-14T01:11:06;27.80;86.20
10583;DHT22;33679;51.218;6.786;2022-08-14T01:13:36;27.80;87.20
10583;DHT22;33679;51.218;6.786;2022-08-14T01:16:06;27.70;87.30
10583;DHT22;33679;51.218;6.786;2022-08-14T01:18:47;27.70;87.40
10583;DHT22;33679;51.218;6.786;2022-08-14T01:21:38;27.70;87.50
10583;DHT22;33679;51.218;6.786;2022-08-14T01:24:07;27.60;87.70
10583;DHT22;33679;51.218;6.786;2022-08-14T01:26:35;27.60;87.90
10583;DHT22;33679;51.218;6.786;2022-08-14T01:32:12;27.60;88.40
10583;DHT22;33679;51.218;6.786;2022-08-14T01:34:46;27.60;88.60
10583;DHT22;33679;51.218;6.786;2022-08-14T01:37:15;27.60;89.00
10583;DHT22;33679;51.218;6.786;2022-08-14T01:39:43;27.60;89.10
10583;DHT22;33679;51.218;6.786;2022-08-14T01:42:10;27.50;89.10
10583;DHT22;33679;51.218;6.786;2022-08-14T01:44:45;27.50;89.50
10583;DHT22;33679;51.218;6.786;2022-08-14T01:47:16;27.50;89.60
10583;DHT22;33679;51.218;6.786;2022-08-14T01:49:44;27.50;90.00
10583;DHT22;33679;51.218;6.786;2022-08-14T01:52:11;27.40;89.90
10583;DHT22;33679;51.218;6.786;2022-08-14T01:54:47;27.40;90.00
10583;DHT22;33679;51.218;6.786;2022-08-14T01:57:15;27.40;90.10
10583;DHT22;33679;51.218;6.786;2022-08-14T01:59:43;27.40;90.20
10583;DHT22;33679;51.218;6.786;2022-08-14T02:02:10;27.40;90.30
10583;DHT22;33679;51.218;6.786;2022-08-14T02:04:48;27.40;90.40
10583;DHT22;33679;51.218;6.786;2022-08-14T02:07:15;27.40;90.50
10583;DHT22;33679;51.218;6.786;2022-08-14T02:09:44;27.30;90.70
10583;DHT22;33679;51.218;6.786;2022-08-14T02:12:11;27.30;90.70
10583;DHT22;33679;51.218;6.786;2022-08-14T02:14:39;27.30;90.80
10583;DHT22;33679;51.218;6.786;2022-08-14T02:17:16;27.30;90.90
10583;DHT22;33679;51.218;6.786;2022-08-14T02:19:48;27.30;90.90
10583;DHT22;33679;51.218;6.786;2022-08-14T02:22:16;27.30;91.10
10583;DHT22;33679;51.218;6.786;2022-08-14T02:24:45;27.30;91.20
10583;DHT22;33679;51.218;6.786;2022-08-14T02:27:17;27.20;91.20
10583;DHT22;33679;51.218;6.786;2022-08-14T02:29:45;27.30;91.30
10583;DHT22;33679;51.218;6.786;2022-08-14T02:32:13;27.30;91.60
10583;DHT22;33679;51.218;6.786;2022-08-14T02:34:42;27.20;91.20
10583;DHT22;33679;51.218;6.786;2022-08-14T02:37:12;27.20;91.30
10583;DHT22;33679;51.218;6.786;2022-08-14T02:39:45;27.20;91.60
10583;DHT22;33679;51.218;6.786;2022-08-14T02:42:17;27.20;91.50
10583;DHT22;33679;51.218;6.786;2022-08-14T02:44:46;27.10;91.50
10583;DHT22;33679;51.218;6.786;2022-08-14T02:47:18;27.10;91.70
10583;DHT22;33679;51.218;6.786;2022-08-14T02:49:48;27.10;92.00
10583;DHT22;33679;51.218;6.786;2022-08-14T02:52:16;27.00;92.00
10583;DHT22;33679;51.218;6.786;2022-08-14T02:54:45;27.00;92.10
10583;DHT22;33679;51.218;6.786;2022-08-14T02:57:12;27.00;92.10
10583;DHT22;33679;51.218;6.786;2022-08-14T02:59:41;27.00;92.30
10583;DHT22;33679;51.218;6.786;2022-08-14T03:02:09;27.00;92.30
10583;DHT22;33679;51.218;6.786;2022-08-14T03:04:37;27.00;92.40
10583;DHT22;33679;51.218;6.786;2022-08-14T03:07:05;27.00;92.40
10583;DHT22;33679;51.218;6.786;2022-08-14T03:09:38;27.00;92.50
10583;DHT22;33679;51.218;6.786;2022-08-14T03:12:18;27.00;92.40
10583;DHT22;33679;51.218;6.786;2022-08-14T03:14:46;27.00;92.60
10583;DHT22;33679;51.218;6.786;2022-08-14T03:17:16;27.00;92.60
10583;DHT22;33679;51.218;6.786;2022-08-14T03:19:46;27.00;92.60
10583;DHT22;33679;51.218;6.786;2022-08-14T03:22:14;27.00;92.70
10583;DHT22;33679;51.218;6.786;2022-08-14T03:24:41;27.00;92.80
10583;DHT22;33679;51.218;6.786;2022-08-14T03:27:08;26.90;92.80
10583;DHT22;33679;51.218;6.786;2022-08-14T03:29:48;26.90;92.80
10583;DHT22;33679;51.218;6.786;2022-08-14T03:32:18;26.90;92.90
10583;DHT22;33679;51.218;6.786;2022-08-14T03:34:45;26.90;93.10
10583;DHT22;33679;51.218;6.786;2022-08-14T03:37:13;27.00;93.00
10583;DHT22;33679;51.218;6.786;2022-08-14T03:39:40;26.90;93.00
10583;DHT22;33679;51.218;6.786;2022-08-14T03:42:12;26.90;93.00
10583;DHT22;33679;51.218;6.786;2022-08-14T03:44:41;26.90;93.10
10583;DHT22;33679;51.218;6.786;2022-08-14T03:47:09;26.90;93.20
10583;DHT22;33679;51.218;6.786;2022-08-14T03:49:37;26.90;93.30
10583;DHT22;33679;51.218;6.786;2022-08-14T03:52:05;26.90;93.20
10583;DHT22;33679;51.218;6.786;2022-08-14T03:54:34;26.80;93.30
10583;DHT22;33679;51.218;6.786;2022-08-14T03:57:03;26.80;93.40
10583;DHT22;33679;51.218;6.786;2022-08-14T03:59:30;26.80;93.50
10583;DHT22;33679;51.218;6.786;2022-08-14T04:01:59;26.80;93.50
10583;DHT22;33679;51.218;6.786;2022-08-14T04:04:28;26.80;93.60
10583;DHT22;33679;51.218;6.786;2022-08-14T04:07:03;26.80;93.50
10583;DHT22;33679;51.218;6.786;2022-08-14T04:09:30;26.80;93.70
10583;DHT22;33679;51.218;6.786;2022-08-14T04:11:57;26.80;93.70
10583;DHT22;33679;51.218;6.786;2022-08-14T04:14:25;26.80;93.80
10583;DHT22;33679;51.218;6.786;2022-08-14T04:16:55;26.70;93.90
10583;DHT22;33679;51.218;6.786;2022-08-14T04:19:31;26.70;94.00
10583;DHT22;33679;51.218;6.786;2022-08-14T04:21:58;26.70;94.00
10583;DHT22;33679;51.218;6.786;2022-08-14T04:24:25;26.70;94.10
10583;DHT22;33679;51.218;6.786;2022-08-14T04:26:54;26.70;94.20
10583;DHT22;33679;51.218;6.786;2022-08-14T04:29:23;26.70;94.20
10583;DHT22;33679;51.218;6.786;2022-08-14T04:31:52;26.70;94.30
10583;DHT22;33679;51.218;6.786;2022-08-14T04:34:21;26.70;94.40
10583;DHT22;33679;51.218;6.786;2022-08-14T04:36:51;26.70;94.40
10583;DHT22;33679;51.218;6.786;2022-08-14T04:39:36;26.60;94.60
10583;DHT22;33679;51.218;6.786;2022-08-14T04:42:21;26.50;94.70
10583;DHT22;33679;51.218;6.786;2022-08-14T04:45:08;26.50;94.80
10583;DHT22;33679;51.218;6.786;2022-08-14T04:47:35;26.50;94.80
10583;DHT22;33679;51.218;6.786;2022-08-14T04:50:20;26.50;95.00
10583;DHT22;33679;51.218;6.786;2022-08-14T04:52:49;26.50;94.90
10583;DHT22;33679;51.218;6.786;2022-08-14T04:55:16;26.50;95.00
10583;DHT22;33679;51.218;6.786;2022-08-14T04:57:52;26.50;95.00
10583;DHT22;33679;51.218;6.786;2022-08-14T05:00:19;26.50;95.10
10583;DHT22;33679;51.218;6.786;2022-08-14T05:02:47;26.50;95.20
10583;DHT22;33679;51.218;6.786;2022-08-14T05:05:14;26.50;95.20
10583;DHT22;33679;51.218;6.786;2022-08-14T05:07:43;26.50;95.40
10583;DHT22;33679;51.218;6.786;2022-08-14T05:10:12;26.50;95.50
10583;DHT22;33679;51.218;6.786;2022-08-14T05:12:39;26.50;95.60
10583;DHT22;33679;51.218;6.786;2022-08-14T05:15:09;26.50;95.60
10583;DHT22;33679;51.218;6.786;2022-08-14T05:17:41;26.50;95.80
10583;DHT22;33679;51.218;6.786;2022-08-14T05:20:08;26.60;95.90
10583;DHT22;33679;51.218;6.786;2022-08-14T05:22:36;26.60;96.00
10583;DHT22;33679;51.218;6.786;2022-08-14T05:25:04;26.50;96.10
10583;DHT22;33679;51.218;6.786;2022-08-14T05:27:33;26.60;96.10
10583;DHT22;33679;51.218;6.786;2022-08-14T05:30:04;26.60;96.20
10583;DHT22;33679;51.218;6.786;2022-08-14T05:32:32;26.70;96.30
10583;DHT22;33679;51.218;6.786;2022-08-14T05:35:00;26.70;96.40
10583;DHT22;33679;51.218;6.786;2022-08-14T05:37:28;26.70;96.50
10583;DHT22;33679;51.218;6.786;2022-08-14T05:39:56;26.70;96.60
10583;DHT22;33679;51.218;6.786;2022-08-14T05:42:24;26.70;96.50
10583;DHT22;33679;51.218;6.786;2022-08-14T05:44:53;26.70;96.60
10583;DHT22;33679;51.218;6.786;2022-08-14T05:47:23;26.80;96.60
10583;DHT22;33679;51.218;6.786;2022-08-14T05:49:50;26.90;96.80
10583;DHT22;33679;51.218;6.786;2022-08-14T05:52:17;26.80;96.80
10583;DHT22;33679;51.218;6.786;2022-08-14T05:54:45;26.80;97.00
10583;DHT22;33679;51.218;6.786;2022-08-14T05:57:12;26.80;97.00
10583;DHT22;33679;51.218;6.786;2022-08-14T05:59:39;26.80;97.20
10583;DHT22;33679;51.218;6.786;2022-08-14T06:02:10;26.70;97.30
10583;DHT22;33679;51.218;6.786;2022-08-14T06:04:39;26.70;97.40
10583;DHT22;33679;51.218;6.786;2022-08-14T06:07:13;26.70;97.50
10583;DHT22;33679;51.218;6.786;2022-08-14T06:09:40;26.70;97.60
10583;DHT22;33679;51.218;6.786;2022-08-14T06:12:08;26.70;97.80
10583;DHT22;33679;51.218;6.786;2022-08-14T06:14:35;26.60;97.90
10583;DHT22;33679;51.218;6.786;2022-08-14T06:17:02;26.70;98.00
10583;DHT22;33679;51.218;6.786;2022-08-14T06:19:31;26.70;98.00
10583;DHT22;33679;51.218;6.786;2022-08-14T06:21:59;26.70;98.00
10583;DHT22;33679;51.218;6.786;2022-08-14T06:24:26;26.70;98.10
10583;DHT22;33679;51.218;6.786;2022-08-14T06:26:53;26.80;98.10
10583;DHT22;33679;51.218;6.786;2022-08-14T06:29:20;26.90;98.10
10583;DHT22;33679;51.218;6.786;2022-08-14T06:31:48;27.00;98.00
10583;DHT22;33679;51.218;6.786;2022-08-14T06:34:17;27.00;98.00
10583;DHT22;33679;51.218;6.786;2022-08-14T06:36:45;27.10;98.00
10583;DHT22;33679;51.218;6.786;2022-08-14T06:39:12;27.10;98.00
10583;DHT22;33679;51.218;6.786;2022-08-14T06:41:42;27.10;98.10
10583;DHT22;33679;51.218;6.786;2022-08-14T06:44:09;27.10;98.00
10583;DHT22;33679;51.218;6.786;2022-08-14T06:46:36;27.30;98.00
10583;DHT22;33679;51.218;6.786;2022-08-14T06:49:04;27.30;98.00
10583;DHT22;33679;51.218;6.786;2022-08-14T06:51:31;27.30;98.00
10583;DHT22;33679;51.218;6.786;2022-08-14T06:54:01;27.40;98.00
10583;DHT22;33679;51.218;6.786;2022-08-14T06:56:29;27.40;97.90
10583;DHT22;33679;51.218;6.786;2022-08-14T06:58:56;27.40;97.80
10583;DHT22;33679;51.218;6.786;2022-08-14T07:01:23;27.50;97.70
10583;DHT22;33679;51.218;6.786;2022-08-14T07:04:07;27.60;97.80
10583;DHT22;33679;51.218;6.786;2022-08-14T07:06:54;27.60;97.80
10583;DHT22;33679;51.218;6.786;2022-08-14T07:09:23;27.60;97.70
10583;DHT22;33679;51.218;6.786;2022-08-14T07:11:50;27.60;97.70
10583;DHT22;33679;51.218;6.786;2022-08-14T07:14:17;27.60;97.80
10583;DHT22;33679;51.218;6.786;2022-08-14T07:16:44;27.60;97.70
10583;DHT22;33679;51.218;6.786;2022-08-14T07:19:15;27.70;97.70
10583;DHT22;33679;51.218;6.786;2022-08-14T07:21:42;27.70;97.80
10583;DHT22;33679;51.218;6.786;2022-08-14T07:24:10;27.70;97.70
10583;DHT22;33679;51.218;6.786;2022-08-14T07:26:39;27.80;97.80
10583;DHT22;33679;51.218;6.786;2022-08-14T07:29:06;27.80;97.80
10583;DHT22;33679;51.218;6.786;2022-08-14T07:31:34;27.90;97.80
10583;DHT22;33679;51.218;6.786;2022-08-14T07:34:03;27.90;97.70
10583;DHT22;33679;51.218;6.786;2022-08-14T07:36:30;28.00;97.50
10583;DHT22;33679;51.218;6.786;2022-08-14T07:38:57;28.00;97.30
10583;DHT22;33679;51.218;6.786;2022-08-14T07:41:25;28.10;97.20
10583;DHT22;33679;51.218;6.786;2022-08-14T07:43:55;28.10;97.30
10583;DHT22;33679;51.218;6.786;2022-08-14T07:46:23;28.00;97.20
10583;DHT22;33679;51.218;6.786;2022-08-14T07:48:50;28.00;97.20
10583;DHT22;33679;51.218;6.786;2022-08-14T07:51:21;28.00;97.30
10583;DHT22;33679;51.218;6.786;2022-08-14T07:53:52;28.00;97.30
10583;DHT22;33679;51.218;6.786;2022-08-14T07:56:20;28.10;97.30
10583;DHT22;33679;51.218;6.786;2022-08-14T07:58:49;28.20;97.10
10583;DHT22;33679;51.218;6.786;2022-08-14T08:01:18;28.30;96.90
10583;DHT22;33679;51.218;6.786;2022-08-14T08:03:45;28.40;96.80
10583;DHT22;33679;51.218;6.786;2022-08-14T08:06:15;28.50;96.80
10583;DHT22;33679;51.218;6.786;2022-08-14T08:08:43;28.50;96.60
10583;DHT22;33679;51.218;6.786;2022-08-14T08:11:12;28.60;96.40
10583;DHT22;33679;51.218;6.786;2022-08-14T08:13:41;28.60;96.30
10583;DHT22;33679;51.218;6.786;2022-08-14T08:16:08;28.70;96.30
10583;DHT22;33679;51.218;6.786;2022-08-14T08:18:36;28.70;96.30
10583;DHT22;33679;51.218;6.786;2022-08-14T08:21:10;28.80;96.00
10583;DHT22;33679;51.218;6.786;2022-08-14T08:23:37;28.80;95.80
10583;DHT22;33679;51.218;6.786;2022-08-14T08:26:05;28.90;95.80
10583;DHT22;33679;51.218;6.786;2022-08-14T08:28:35;28.90;95.70
10583;DHT22;33679;51.218;6.786;2022-08-14T08:31:05;28.90;95.70
10583;DHT22;33679;51.218;6.786;2022-08-14T08:33:36;29.00;95.50
10583;DHT22;33679;51.218;6.786;2022-08-14T08:36:07;29.10;95.40
10583;DHT22;33679;51.218;6.786;2022-08-14T08:38:36;29.10;95.30
10583;DHT22;33679;51.218;6.786;2022-08-14T08:41:03;29.10;95.30
10583;DHT22;33679;51.218;6.786;2022-08-14T08:43:35;29.20;95.20
10583;DHT22;33679;51.218;6.786;2022-08-14T08:46:04;29.30;95.00
10583;DHT22;33679;51.218;6.786;2022-08-14T08:48:45;29.30;94.90
10583;DHT22;33679;51.218;6.786;2022-08-14T08:51:22;29.40;94.60
10583;DHT22;33679;51.218;6.786;2022-08-14T08:53:57;29.50;94.40
10583;DHT22;33679;51.218;6.786;2022-08-14T08:56:39;29.50;94.30
10583;DHT22;33679;51.218;6.786;2022-08-14T08:59:20;29.60;94.40
10583;DHT22;33679;51.218;6.786;2022-08-14T09:01:53;29.60;94.30
10583;DHT22;33679;51.218;6.786;2022-08-14T09:04:25;29.70;93.90
10583;DHT22;33679;51.218;6.786;2022-08-14T09:06:52;29.80;93.80
10583;DHT22;33679;51.218;6.786;2022-08-14T09:09:21;29.80;93.60
10583;DHT22;33679;51.218;6.786;2022-08-14T09:11:48;29.80;93.50
10583;DHT22;33679;51.218;6.786;2022-08-14T09:14:17;29.90;93.50
10583;DHT22;33679;51.218;6.786;2022-08-14T09:16:44;30.00;93.40
10583;DHT22;33679;51.218;6.786;2022-08-14T09:19:12;30.00;93.30
10583;DHT22;33679;51.218;6.786;2022-08-14T09:21:40;30.00;93.00
10583;DHT22;33679;51.218;6.786;2022-08-14T09:24:08;30.10;93.00
10583;DHT22;33679;51.218;6.786;2022-08-14T09:26:36;30.20;92.90
10583;DHT22;33679;51.218;6.786;2022-08-14T09:29:08;30.20;92.40
10583;DHT22;33679;51.218;6.786;2022-08-14T09:31:39;30.30;92.00
10583;DHT22;33679;51.218;6.786;2022-08-14T09:34:16;30.30;91.80
10583;DHT22;33679;51.218;6.786;2022-08-14T09:36:55;30.30;91.70
10583;DHT22;33679;51.218;6.786;2022-08-14T09:39:45;30.70;91.70
10583;DHT22;33679;51.218;6.786;2022-08-14T09:42:32;30.60;91.50
10583;DHT22;33679;51.218;6.786;2022-08-14T09:45:23;30.60;90.90
10583;DHT22;33679;51.218;6.786;2022-08-14T09:48:13;30.70;90.10
10583;DHT22;33679;51.218;6.786;2022-08-14T09:50:47;30.60;89.30
10583;DHT22;33679;51.218;6.786;2022-08-14T09:53:38;30.70;88.80
10583;DHT22;33679;51.218;6.786;2022-08-14T09:56:13;30.70;90.20
10583;DHT22;33679;51.218;6.786;2022-08-14T09:58:45;30.80;90.20
10583;DHT22;33679;51.218;6.786;2022-08-14T10:01:14;30.80;89.70
10583;DHT22;33679;51.218;6.786;2022-08-14T10:03:49;30.90;89.50
10583;DHT22;33679;51.218;6.786;2022-08-14T10:06:22;30.90;89.70
10583;DHT22;33679;51.218;6.786;2022-08-14T10:08:53;30.90;89.80
10583;DHT22;33679;51.218;6.786;2022-08-14T10:11:26;31.00;89.60
10583;DHT22;33679;51.218;6.786;2022-08-14T10:13:57;31.00;89.50
10583;DHT22;33679;51.218;6.786;2022-08-14T10:16:28;31.10;89.60
10583;DHT22;33679;51.218;6.786;2022-08-14T10:19:04;31.10;89.10
10583;DHT22;33679;51.218;6.786;2022-08-14T10:21:39;31.20;88.70
10583;DHT22;33679;51.218;6.786;2022-08-14T10:24:10;31.20;87.80
10583;DHT22;33679;51.218;6.786;2022-08-14T10:26:55;31.30;87.10
10583;DHT22;33679;51.218;6.786;2022-08-14T10:29:31;31.30;86.80
10583;DHT22;33679;51.218;6.786;2022-08-14T10:31:59;31.30;86.50
10583;DHT22;33679;51.218;6.786;2022-08-14T10:34:38;31.40;86.00
10583;DHT22;33679;51.218;6.786;2022-08-14T10:40:31;31.50;83.90
10583;DHT22;33679;51.218;6.786;2022-08-14T10:43:01;31.80;83.50
10583;DHT22;33679;51.218;6.786;2022-08-14T10:45:31;31.80;83.90
10583;DHT22;33679;51.218;6.786;2022-08-14T10:47:59;31.90;83.70
10583;DHT22;33679;51.218;6.786;2022-08-14T10:50:35;31.90;83.80
10583;DHT22;33679;51.218;6.786;2022-08-14T10:53:03;31.90;83.30
10583;DHT22;33679;51.218;6.786;2022-08-14T10:55:34;31.90;84.10
10583;DHT22;33679;51.218;6.786;2022-08-14T10:58:11;32.00;84.20
10583;DHT22;33679;51.218;6.786;2022-08-14T11:00:40;32.00;84.00
10583;DHT22;33679;51.218;6.786;2022-08-14T11:03:09;32.00;83.90
10583;DHT22;33679;51.218;6.786;2022-08-14T11:05:40;32.00;84.00
10583;DHT22;33679;51.218;6.786;2022-08-14T11:08:08;32.00;83.80
10583;DHT22;33679;51.218;6.786;2022-08-14T11:10:43;32.00;83.90
10583;DHT22;33679;51.218;6.786;2022-08-14T11:13:15;32.10;83.80
10583;DHT22;33679;51.218;6.786;2022-08-14T11:15:43;32.10;83.90
10583;DHT22;33679;51.218;6.786;2022-08-14T11:18:11;32.10;83.70
10583;DHT22;33679;51.218;6.786;2022-08-14T11:20:48;32.10;83.30
10583;DHT22;33679;51.218;6.786;2022-08-14T11:23:16;32.20;83.10
10583;DHT22;33679;51.218;6.786;2022-08-14T11:25:47;32.20;82.90
10583;DHT22;33679;51.218;6.786;2022-08-14T11:28:24;32.30;83.00
10583;DHT22;33679;51.218;6.786;2022-08-14T11:30:53;32.40;82.40
10583;DHT22;33679;51.218;6.786;2022-08-14T11:33:22;32.40;82.50
10583;DHT22;33679;51.218;6.786;2022-08-14T11:35:52;32.50;82.00
10583;DHT22;33679;51.218;6.786;2022-08-14T11:38:35;32.60;81.80
10583;DHT22;33679;51.218;6.786;2022-08-14T11:41:04;32.60;81.70
10583;DHT22;33679;51.218;6.786;2022-08-14T11:43:43;32.80;81.10
10583;DHT22;33679;51.218;6.786;2022-08-14T11:46:11;32.80;80.80
10583;DHT22;33679;51.218;6.786;2022-08-14T11:48:45;32.80;80.40
10583;DHT22;33679;51.218;6.786;2022-08-14T11:51:14;32.90;80.20
10583;DHT22;33679;51.218;6.786;2022-08-14T11:53:50;32.90;80.10
10583;DHT22;33679;51.218;6.786;2022-08-14T11:56:20;33.00;80.00
10583;DHT22;33679;51.218;6.786;2022-08-14T11:58:52;33.00;79.70
10583;DHT22;33679;51.218;6.786;2022-08-14T12:01:27;33.10;79.60
10583;DHT22;33679;51.218;6.786;2022-08-14T12:04:07;33.10;79.60
10583;DHT22;33679;51.218;6.786;2022-08-14T12:06:46;33.20;79.60
10583;DHT22;33679;51.218;6.786;2022-08-14T12:09:27;33.20;79.30
10583;DHT22;33679;51.218;6.786;2022-08-14T12:11:59;33.20;79.20
10583;DHT22;33679;51.218;6.786;2022-08-14T12:14:27;33.20;79.20
10583;DHT22;33679;51.218;6.786;2022-08-14T12:16:59;33.30;79.10
10583;DHT22;33679;51.218;6.786;2022-08-14T12:19:26;33.30;78.70
10583;DHT22;33679;51.218;6.786;2022-08-14T12:21:53;33.30;78.40
10583;DHT22;33679;51.218;6.786;2022-08-14T12:24:26;33.20;78.50
10583;DHT22;33679;51.218;6.786;2022-08-14T12:26:54;33.20;78.70
10583;DHT22;33679;51.218;6.786;2022-08-14T12:29:23;33.30;78.60
10583;DHT22;33679;51.218;6.786;2022-08-14T12:31:58;33.40;78.40
10583;DHT22;33679;51.218;6.786;2022-08-14T12:34:33;33.40;78.30
10583;DHT22;33679;51.218;6.786;2022-08-14T12:37:05;33.50;78.90
10583;DHT22;33679;51.218;6.786;2022-08-14T12:39:33;33.50;77.60
10583;DHT22;33679;51.218;6.786;2022-08-14T12:42:13;33.50;77.40
10583;DHT22;33679;51.218;6.786;2022-08-14T12:44:56;33.60;77.60
10583;DHT22;33679;51.218;6.786;2022-08-14T12:47:33;33.70;78.00
10583;DHT22;33679;51.218;6.786;2022-08-14T12:50:02;33.70;78.10
10583;DHT22;33679;51.218;6.786;2022-08-14T12:52:32;33.80;78.00
10583;DHT22;33679;51.218;6.786;2022-08-14T12:55:00;33.80;77.70
10583;DHT22;33679;51.218;6.786;2022-08-14T12:57:36;33.90;77.60
10583;DHT22;33679;51.218;6.786;2022-08-14T13:00:08;33.90;77.40
10583;DHT22;33679;51.218;6.786;2022-08-14T13:02:38;33.80;77.30
10583;DHT22;33679;51.218;6.786;2022-08-14T13:05:07;33.80;77.50
10583;DHT22;33679;51.218;6.786;2022-08-14T13:07:35;33.70;77.90
10583;DHT22;33679;51.218;6.786;2022-08-14T13:10:06;33.60;78.90
10583;DHT22;33679;51.218;6.786;2022-08-14T13:12:37;33.60;78.40
10583;DHT22;33679;51.218;6.786;2022-08-14T13:15:08;33.60;79.10
10583;DHT22;33679;51.218;6.786;2022-08-14T13:17:40;33.70;79.30
10583;DHT22;33679;51.218;6.786;2022-08-14T13:20:09;33.60;79.30
10583;DHT22;33679;51.218;6.786;2022-08-14T13:22:38;33.60;79.30
10583;DHT22;33679;51.218;6.786;2022-08-14T13:25:17;33.50;79.40
10583;DHT22;33679;51.218;6.786;2022-08-14T13:27:46;33.50;79.50
10583;DHT22;33679;51.218;6.786;2022-08-14T13:30:16;33.40;79.60
10583;DHT22;33679;51.218;6.786;2022-08-14T13:32:47;33.50;79.40
10583;DHT22;33679;51.218;6.786;2022-08-14T13:35:23;33.50;80.30
10583;DHT22;33679;51.218;6.786;2022-08-14T13:37:51;33.40;79.40
10583;DHT22;33679;51.218;6.786;2022-08-14T13:40:20;33.40;79.40
10583;DHT22;33679;51.218;6.786;2022-08-14T13:42:51;33.40;79.10
10583;DHT22;33679;51.218;6.786;2022-08-14T13:45:24;33.40;79.10
10583;DHT22;33679;51.218;6.786;2022-08-14T13:47:54;33.40;78.70
10583;DHT22;33679;51.218;6.786;2022-08-14T13:50:23;33.40;78.60
10583;DHT22;33679;51.218;6.786;2022-08-14T13:52:53;33.40;77.80
10583;DHT22;33679;51.218;6.786;2022-08-14T13:55:25;33.40;77.60
10583;DHT22;33679;51.218;6.786;2022-08-14T13:57:55;33.50;77.60
10583;DHT22;33679;51.218;6.786;2022-08-14T14:00:24;33.50;77.60
10583;DHT22;33679;51.218;6.786;2022-08-14T14:02:52;33.60;77.20
10583;DHT22;33679;51.218;6.786;2022-08-14T14:05:23;33.70;76.60
10583;DHT22;33679;51.218;6.786;2022-08-14T14:07:52;33.80;76.30
10583;DHT22;33679;51.218;6.786;2022-08-14T14:10:24;33.80;76.00
10583;DHT22;33679;51.218;6.786;2022-08-14T14:12:53;33.80;76.00
10583;DHT22;33679;51.218;6.786;2022-08-14T14:15:30;33.90;76.10
10583;DHT22;33679;51.218;6.786;2022-08-14T14:17:57;34.00;76.10
10583;DHT22;33679;51.218;6.786;2022-08-14T14:20:25;34.10;75.80
10583;DHT22;33679;51.218;6.786;2022-08-14T14:22:52;34.10;75.70
10583;DHT22;33679;51.218;6.786;2022-08-14T14:25:20;34.10;75.70
10583;DHT22;33679;51.218;6.786;2022-08-14T14:27:48;34.20;75.40
10583;DHT22;33679;51.218;6.786;2022-08-14T14:30:19;34.20;75.40
10583;DHT22;33679;51.218;6.786;2022-08-14T14:32:49;34.20;75.70
10583;DHT22;33679;51.218;6.786;2022-08-14T14:35:17;34.20;75.60
10583;DHT22;33679;51.218;6.786;2022-08-14T14:37:46;34.20;74.90
10583;DHT22;33679;51.218;6.786;2022-08-14T14:40:16;34.30;75.00
10583;DHT22;33679;51.218;6.786;2022-08-14T14:42:46;34.30;75.00
10583;DHT22;33679;51.218;6.786;2022-08-14T14:45:15;34.40;74.80
10583;DHT22;33679;51.218;6.786;2022-08-14T14:47:46;34.50;74.90
10583;DHT22;33679;51.218;6.786;2022-08-14T14:50:15;34.50;74.90
10583;DHT22;33679;51.218;6.786;2022-08-14T14:52:42;34.60;74.70
10583;DHT22;33679;51.218;6.786;2022-08-14T14:55:12;34.60;74.80
10583;DHT22;33679;51.218;6.786;2022-08-14T14:57:41;34.60;74.70
10583;DHT22;33679;51.218;6.786;2022-08-14T15:00:13;34.60;74.60
10583;DHT22;33679;51.218;6.786;2022-08-14T15:02:43;34.60;74.50
10583;DHT22;33679;51.218;6.786;2022-08-14T15:05:13;34.60;74.40
10583;DHT22;33679;51.218;6.786;2022-08-14T15:07:43;34.60;74.80
10583;DHT22;33679;51.218;6.786;2022-08-14T15:10:12;34.60;74.50
10583;DHT22;33679;51.218;6.786;2022-08-14T15:12:40;34.70;74.70
10583;DHT22;33679;51.218;6.786;2022-08-14T15:15:09;34.70;74.60
10583;DHT22;33679;51.218;6.786;2022-08-14T15:17:37;34.80;74.60
10583;DHT22;33679;51.218;6.786;2022-08-14T15:20:07;34.90;74.30
10583;DHT22;33679;51.218;6.786;2022-08-14T15:22:38;34.90;74.40
10583;DHT22;33679;51.218;6.786;2022-08-14T15:25:09;34.80;74.30
10583;DHT22;33679;51.218;6.786;2022-08-14T15:27:38;34.80;74.30
10583;DHT22;33679;51.218;6.786;2022-08-14T15:30:07;34.80;74.20
10583;DHT22;33679;51.218;6.786;2022-08-14T15:32:40;34.70;74.40
10583;DHT22;33679;51.218;6.786;2022-08-14T15:35:07;34.60;74.40
10583;DHT22;33679;51.218;6.786;2022-08-14T15:37:36;34.60;74.80
10583;DHT22;33679;51.218;6.786;2022-08-14T15:40:09;34.60;75.00
10583;DHT22;33679;51.218;6.786;2022-08-14T15:42:37;34.60;74.80
10583;DHT22;33679;51.218;6.786;2022-08-14T15:45:07;34.60;74.80
10583;DHT22;33679;51.218;6.786;2022-08-14T15:47:35;34.60;74.70
10583;DHT22;33679;51.218;6.786;2022-08-14T15:50:06;34.60;74.80
10583;DHT22;33679;51.218;6.786;2022-08-14T15:52:35;34.60;74.80
10583;DHT22;33679;51.218;6.786;2022-08-14T15:55:05;34.60;75.00
10583;DHT22;33679;51.218;6.786;2022-08-14T15:57:34;34.60;75.10